Terminal Aerodrome Forecast
Issued by NWS

Home | Current Version | Previous Version | Text Only | Print | Product List | Glossary On
Versions: 1 2 3 4 5 6 7 8 9 10 11 12 13 14 15
000
FTUS42 KTAE 011700
TAFECP
TAF
KECP 011740Z 0118/0218 18009KT P6SM SCT040
     FM020200 00000KT P6SM FEW250
     FM021500 17005KT P6SM SCT040=

USA.gov is the U.S. government's official web portal to all federal, state and local government web resources and services.